^^
B2 Weather Station Historical Data
Daily Summary for November 5, 2018 Units:  English    Metric   Both
Daily Weekly Monthly Yearly Custom
  High: Low: Average:
Temperature: 52.0 °F 41.7 °F 47.2 °F
Dew Point: 49.9 °F 39.7 °F 44.1 °F
Humidity: 94% 74% 89%
Wind Speed: 13.8mph 0.0mph 6.3mph
Wind Gust: 9.3mph - -
Wind- - SSE
Pressure: 30.00 in 29.51 in -
Precipitation: 0.17 in    
Historical Graphs
 
 
Tabular Data for November 5, 2018
Time Temperature Dew Point Pressure Wind Wind Speed Wind Gust Humidity Rainfall Rate (Hourly) solar
00:04 46.9 °F 44.4 °F 29.89 in South 7.0 mph 5.6 mph 91% 0.00 in 0.00 W/m2
00:09 46.9 °F 44.7 °F 29.89 in South 11.5 mph 6.0 mph 92% 0.00 in 0.00 W/m2
00:14 46.8 °F 44.6 °F 29.89 in South 9.2 mph 3.6 mph 92% 0.00 in 0.00 W/m2
00:19 46.8 °F 44.6 °F 29.89 in SSW 5.0 mph 3.9 mph 92% 0.00 in 0.00 W/m2
00:24 46.8 °F 44.6 °F 29.89 in SSW 9.2 mph 7.1 mph 92% 0.00 in 0.00 W/m2
00:29 46.8 °F 44.3 °F 29.89 in SSW 11.5 mph 6.1 mph 91% 0.00 in 0.00 W/m2
00:34 46.8 °F 44.3 °F 29.90 in SSW 6.9 mph 5.8 mph 91% 0.00 in 0.00 W/m2
00:39 46.8 °F 44.3 °F 29.90 in SW 11.5 mph 5.1 mph 91% 0.00 in 0.00 W/m2
00:44 46.8 °F 44.3 °F 29.90 in West 9.2 mph 5.7 mph 91% 0.00 in 0.00 W/m2
00:49 46.8 °F 44.3 °F 29.89 in South 11.5 mph 5.2 mph 91% 0.00 in 0.00 W/m2
00:54 46.8 °F 44.3 °F 29.90 in WSW 10.4 mph 5.5 mph 91% 0.00 in 0.00 W/m2
00:59 46.8 °F 44.3 °F 29.90 in SW 10.0 mph 5.4 mph 91% 0.00 in 0.00 W/m2
01:04 46.8 °F 44.3 °F 29.90 in SSW 7.0 mph 5.2 mph 91% 0.00 in 0.00 W/m2
01:09 46.7 °F 44.2 °F 29.90 in SSW 11.5 mph 4.1 mph 91% 0.00 in 0.00 W/m2
01:14 46.7 °F 44.2 °F 29.90 in SW 5.8 mph 3.9 mph 91% 0.00 in 0.00 W/m2
01:19 46.7 °F 44.5 °F 29.90 in South 6.9 mph 4.4 mph 92% 0.00 in 0.00 W/m2
01:24 46.7 °F 44.5 °F 29.90 in SW 9.2 mph 2.9 mph 92% 0.00 in 0.00 W/m2
01:29 46.6 °F 44.4 °F 29.90 in SW 9.0 mph 5.7 mph 92% 0.00 in 0.00 W/m2
01:34 46.6 °F 44.4 °F 29.91 in SW 9.2 mph 6.6 mph 92% 0.00 in 0.00 W/m2
01:39 46.5 °F 44.3 °F 29.91 in SW 9.2 mph 5.4 mph 92% 0.00 in 0.00 W/m2
01:44 46.4 °F 44.2 °F 29.91 in SSW 11.5 mph 6.9 mph 92% 0.00 in 0.00 W/m2
01:49 46.4 °F 44.2 °F 29.91 in SW 12.7 mph 9.3 mph 92% 0.00 in 0.00 W/m2
01:54 46.3 °F 44.1 °F 29.91 in SSW 11.5 mph 4.8 mph 92% 0.00 in 0.00 W/m2
01:59 46.3 °F 43.8 °F 29.91 in SW 12.7 mph 7.3 mph 91% 0.00 in 0.00 W/m2
02:04 46.2 °F 43.7 °F 29.91 in SW 13.8 mph 7.0 mph 91% 0.00 in 0.00 W/m2
02:09 46.1 °F 43.6 °F 29.91 in SSW 7.0 mph 7.8 mph 91% 0.00 in 0.00 W/m2
02:14 46.0 °F 43.2 °F 29.92 in SSW 9.2 mph 7.1 mph 90% 0.00 in 0.00 W/m2
02:19 45.8 °F 43.0 °F 29.92 in WSW 12.7 mph 6.3 mph 90% 0.00 in 0.00 W/m2
02:24 45.7 °F 42.9 °F 29.92 in WSW 11.5 mph 4.3 mph 90% 0.00 in 0.00 W/m2
02:29 45.4 °F 42.6 °F 29.92 in South 8.1 mph 5.3 mph 90% 0.00 in 0.00 W/m2
02:34 45.1 °F 42.3 °F 29.92 in SW 6.9 mph 5.3 mph 90% 0.00 in 0.00 W/m2
02:39 44.7 °F 41.9 °F 29.91 in WSW 6.9 mph 4.5 mph 90% 0.00 in 0.00 W/m2
02:44 44.4 °F 41.7 °F 29.92 in SSW 6.9 mph 3.9 mph 90% 0.00 in 0.00 W/m2
02:49 44.2 °F 41.5 °F 29.92 in SSW 6.9 mph 5.0 mph 90% 0.00 in 0.00 W/m2
02:54 44.0 °F 41.3 °F 29.92 in SSW 5.8 mph 2.9 mph 90% 0.00 in 0.00 W/m2
02:59 43.8 °F 41.1 °F 29.92 in WSW 10.4 mph 5.3 mph 90% 0.00 in 0.00 W/m2
03:04 43.6 °F 40.9 °F 29.92 in SSW 11.5 mph 3.3 mph 90% 0.00 in 0.00 W/m2
03:09 43.4 °F 40.7 °F 29.92 in SW 5.0 mph 3.5 mph 90% 0.00 in 0.00 W/m2
03:14 43.3 °F 40.6 °F 29.92 in SW 3.5 mph 3.4 mph 90% 0.00 in 0.00 W/m2
03:19 43.2 °F 40.5 °F 29.92 in SSW 4.6 mph 2.4 mph 90% 0.00 in 0.00 W/m2
03:24 43.0 °F 40.3 °F 29.92 in SW 4.6 mph 3.3 mph 90% 0.00 in 0.00 W/m2
03:29 42.9 °F 40.2 °F 29.92 in SW 5.8 mph 2.3 mph 90% 0.00 in 0.00 W/m2
03:34 42.8 °F 40.1 °F 29.93 in SW 3.5 mph 0.4 mph 90% 0.00 in 0.00 W/m2
03:39 42.7 °F 40.3 °F 29.93 in SW 3.5 mph 1.5 mph 91% 0.00 in 0.00 W/m2
03:44 42.7 °F 40.3 °F 29.93 in WSW 3.5 mph 1.5 mph 91% 0.00 in 0.00 W/m2
03:49 42.8 °F 40.4 °F 29.93 in WSW 5.8 mph 3.4 mph 91% 0.00 in 0.00 W/m2
03:54 43.0 °F 40.6 °F 29.93 in South 4.6 mph 3.8 mph 91% 0.00 in 0.00 W/m2
03:59 43.2 °F 41.0 °F 29.93 in SSW 8.1 mph 4.6 mph 92% 0.00 in 0.00 W/m2
04:04 43.3 °F 41.1 °F 29.94 in SSW 7.0 mph 5.5 mph 92% 0.00 in 0.00 W/m2
04:09 43.3 °F 40.8 °F 29.94 in SSW 6.9 mph 2.0 mph 91% 0.00 in 0.00 W/m2
04:14 43.3 °F 40.8 °F 29.94 in SSW 8.1 mph 5.2 mph 91% 0.00 in 0.00 W/m2
04:19 43.3 °F 40.8 °F 29.95 in SW 10.4 mph 1.7 mph 91% 0.00 in 0.00 W/m2
04:24 43.4 °F 40.7 °F 29.95 in SSW 7.0 mph 3.9 mph 90% 0.00 in 0.00 W/m2
04:29 43.4 °F 40.7 °F 29.95 in SSW 4.6 mph 3.1 mph 90% 0.00 in 0.00 W/m2
04:34 43.5 °F 40.8 °F 29.95 in SW 3.5 mph 3.7 mph 90% 0.00 in 0.00 W/m2
04:39 43.5 °F 40.8 °F 29.95 in SSW 2.3 mph 0.9 mph 90% 0.00 in 0.00 W/m2
04:44 43.6 °F 40.9 °F 29.95 in SSW 4.6 mph 3.5 mph 90% 0.00 in 0.00 W/m2
04:49 43.6 °F 40.9 °F 29.95 in South 5.8 mph 4.3 mph 90% 0.00 in 0.00 W/m2
04:54 43.6 °F 40.9 °F 29.95 in SSW 3.5 mph 3.1 mph 90% 0.00 in 0.00 W/m2
04:59 43.7 °F 41.0 °F 29.95 in SW 6.9 mph 3.6 mph 90% 0.00 in 0.00 W/m2
05:04 43.7 °F 41.2 °F 29.95 in SW 9.2 mph 2.8 mph 91% 0.00 in 0.00 W/m2
05:09 43.7 °F 41.2 °F 29.96 in SSW 6.0 mph 3.5 mph 91% 0.00 in 0.00 W/m2
05:14 43.7 °F 41.2 °F 29.96 in SSW 6.9 mph 4.9 mph 91% 0.00 in 0.00 W/m2
05:19 43.7 °F 41.5 °F 29.96 in SW 7.0 mph 5.6 mph 92% 0.00 in 0.00 W/m2
05:24 43.7 °F 41.5 °F 29.96 in SSW 5.8 mph 1.9 mph 92% 0.00 in 0.00 W/m2
05:29 43.7 °F 41.5 °F 29.96 in SSW 5.8 mph 2.8 mph 92% 0.00 in 0.00 W/m2
05:34 43.6 °F 41.4 °F 29.96 in SSW 4.6 mph 2.1 mph 92% 0.00 in 0.00 W/m2
05:39 43.6 °F 41.4 °F 29.95 in SSW 6.9 mph 4.2 mph 92% 0.00 in 0.00 W/m2
05:44 43.6 °F 41.4 °F 29.96 in SSW 4.6 mph 2.0 mph 92% 0.00 in 0.00 W/m2
05:49 43.5 °F 41.3 °F 29.96 in SSW 6.9 mph 4.7 mph 92% 0.00 in 0.00 W/m2
05:54 43.5 °F 41.3 °F 29.96 in SSW 4.0 mph 3.0 mph 92% 0.00 in 0.00 W/m2
05:59 43.4 °F 41.2 °F 29.95 in SSW 7.0 mph 4.6 mph 92% 0.00 in 0.00 W/m2
06:04 43.2 °F 41.0 °F 29.96 in SSW 6.9 mph 4.1 mph 92% 0.00 in 0.00 W/m2
06:09 43.0 °F 40.8 °F 29.96 in SSW 6.9 mph 4.4 mph 92% 0.00 in 0.00 W/m2
06:14 42.8 °F 40.6 °F 29.96 in SW 5.8 mph 3.5 mph 92% 0.00 in 0.00 W/m2
06:19 42.7 °F 40.5 °F 29.96 in SSW 5.8 mph 2.2 mph 92% 0.00 in 0.00 W/m2
06:24 42.5 °F 40.3 °F 29.96 in SSW 5.0 mph 2.9 mph 92% 0.00 in 0.00 W/m2
06:29 42.4 °F 40.2 °F 29.96 in SW 6.9 mph 2.4 mph 92% 0.00 in 7.00 W/m2
06:34 42.2 °F 40.0 °F 29.97 in South 5.8 mph 3.8 mph 92% 0.00 in 11.00 W/m2
06:39 42.0 °F 39.8 °F 29.97 in SSW 3.5 mph 0.6 mph 92% 0.00 in 14.00 W/m2
06:44 41.9 °F 39.7 °F 29.96 in SSW 2.3 mph 0.7 mph 92% 0.00 in 18.00 W/m2
06:49 41.8 °F 39.9 °F 29.96 in SSW 3.5 mph 0.6 mph 93% 0.00 in 23.00 W/m2
06:54 41.7 °F 39.8 °F 29.96 in SSW 4.0 mph 1.0 mph 93% 0.00 in 23.00 W/m2
06:59 41.9 °F 40.0 °F 29.97 in SSW 3.5 mph 1.4 mph 93% 0.00 in 26.00 W/m2
07:04 42.0 °F 40.1 °F 29.96 in SSW 3.5 mph 0.7 mph 93% 0.00 in 33.00 W/m2
07:09 42.2 °F 40.6 °F 29.96 in South 3.0 mph 1.1 mph 94% 0.00 in 35.00 W/m2
07:14 42.4 °F 40.8 °F 29.96 in South 3.5 mph 2.3 mph 94% 0.00 in 30.00 W/m2
07:19 42.5 °F 40.9 °F 29.96 in South 4.6 mph 2.9 mph 94% 0.00 in 35.00 W/m2
07:24 42.7 °F 41.1 °F 29.96 in South 4.6 mph 2.2 mph 94% 0.00 in 33.00 W/m2
07:29 42.8 °F 41.2 °F 29.96 in South 6.0 mph 3.0 mph 94% 0.00 in 32.00 W/m2
07:34 42.9 °F 41.3 °F 29.96 in SSW 3.5 mph 1.4 mph 94% 0.00 in 28.00 W/m2
07:39 43.0 °F 41.4 °F 29.96 in South 5.8 mph 2.0 mph 94% 0.00 in 21.00 W/m2
07:44 43.0 °F 41.4 °F 29.96 in SSW 4.6 mph 1.9 mph 94% 0.00 in 26.00 W/m2
07:49 43.1 °F 41.5 °F 29.96 in South 4.6 mph 3.2 mph 94% 0.00 in 32.00 W/m2
07:54 43.1 °F 41.5 °F 29.96 in South 3.5 mph 1.7 mph 94% 0.00 in 44.00 W/m2
07:59 43.2 °F 41.6 °F 29.96 in SSE 3.5 mph 3.3 mph 94% 0.00 in 51.00 W/m2
08:04 43.4 °F 41.8 °F 29.96 in SSW 3.5 mph 2.3 mph 94% 0.00 in 56.00 W/m2
08:09 43.5 °F 41.9 °F 29.96 in SSW 3.5 mph 2.3 mph 94% 0.00 in 63.00 W/m2
08:14 43.7 °F 42.1 °F 29.97 in SSW 4.6 mph 2.5 mph 94% 0.00 in 49.00 W/m2
08:19 43.7 °F 42.1 °F 29.96 in South 3.0 mph 2.3 mph 94% 0.00 in 47.00 W/m2
08:24 43.8 °F 42.2 °F 29.96 in South 5.0 mph 2.6 mph 94% 0.00 in 49.00 W/m2
08:29 43.9 °F 42.3 °F 29.97 in SSW 3.5 mph 0.5 mph 94% 0.00 in 60.00 W/m2
08:34 44.0 °F 42.4 °F 29.97 in SSW 4.0 mph 1.1 mph 94% 0.00 in 70.00 W/m2
08:39 44.1 °F 42.5 °F 29.98 in SSW 5.8 mph 4.0 mph 94% 0.00 in 76.00 W/m2
08:44 44.3 °F 42.4 °F 29.98 in SSW 5.8 mph 2.9 mph 93% 0.00 in 83.00 W/m2
08:49 44.4 °F 42.5 °F 29.98 in SSW 6.9 mph 2.0 mph 93% 0.00 in 93.00 W/m2
08:54 44.6 °F 43.0 °F 29.98 in SSW 3.5 mph 0.8 mph 94% 0.00 in 109.00 W/m2
08:59 44.9 °F 43.0 °F 29.98 in South 6.0 mph 1.7 mph 93% 0.00 in 141.00 W/m2
09:04 45.0 °F 43.1 °F 29.98 in South 5.0 mph 2.8 mph 93% 0.00 in 165.00 W/m2
09:09 45.3 °F 43.4 °F 29.98 in SSE 4.6 mph 1.9 mph 93% 0.00 in 176.00 W/m2
09:14 45.6 °F 43.7 °F 29.99 in Calm     93% 0.00 in 178.00 W/m2
09:19 45.9 °F 44.0 °F 29.99 in SSW 3.5 mph 0.7 mph 93% 0.00 in 163.00 W/m2
09:24 46.0 °F 44.1 °F 29.99 in SSW 2.3 mph 0.3 mph 93% 0.00 in 141.00 W/m2
09:29 46.2 °F 44.3 °F 29.99 in SSW 1.2 mph 0.2 mph 93% 0.00 in 176.00 W/m2
09:34 46.4 °F 44.2 °F 30.00 in South 3.5 mph 2.9 mph 92% 0.00 in 193.00 W/m2
09:39 46.8 °F 44.6 °F 29.99 in SSW 3.5 mph 0.5 mph 92% 0.00 in 155.00 W/m2
09:44 47.0 °F 44.8 °F 29.99 in South 5.8 mph 2.7 mph 92% 0.00 in 162.00 W/m2
09:49 47.1 °F 44.9 °F 29.99 in South 5.0 mph 5.3 mph 92% 0.00 in 160.00 W/m2
09:54 47.3 °F 44.8 °F 29.99 in SSW 3.5 mph 1.1 mph 91% 0.00 in 197.00 W/m2
09:59 47.5 °F 45.0 °F 29.99 in SSW 10.4 mph 1.1 mph 91% 0.00 in 214.00 W/m2
10:04 47.8 °F 45.3 °F 29.99 in South 10.4 mph 4.4 mph 91% 0.00 in 295.00 W/m2
10:09 48.7 °F 46.2 °F 29.99 in South 11.5 mph 5.3 mph 91% 0.00 in 512.00 W/m2
10:14 49.1 °F 46.0 °F 29.99 in SSW 10.4 mph 5.4 mph 89% 0.00 in 466.00 W/m2
10:19 49.1 °F 45.7 °F 30.00 in South 9.2 mph 3.2 mph 88% 0.00 in 244.00 W/m2
10:24 49.0 °F 45.3 °F 30.00 in SSE 6.9 mph 2.9 mph 87% 0.00 in 223.00 W/m2
10:29 49.0 °F 45.3 °F 30.00 in SSW 5.8 mph 1.3 mph 87% 0.00 in 197.00 W/m2
10:34 49.0 °F 45.6 °F 30.00 in SSE 11.5 mph 1.4 mph 88% 0.00 in 295.00 W/m2
10:39 49.0 °F 45.3 °F 29.99 in South 5.0 mph 4.6 mph 87% 0.00 in 294.00 W/m2
10:44 49.6 °F 45.9 °F 29.99 in SW 6.9 mph 5.1 mph 87% 0.00 in 285.00 W/m2
10:49 49.4 °F 45.1 °F 29.99 in WSW 5.8 mph 1.7 mph 85% 0.00 in 255.00 W/m2
10:54 49.3 °F 45.0 °F 29.98 in SSE 8.1 mph 5.4 mph 85% 0.00 in 248.00 W/m2
10:59 49.3 °F 45.3 °F 29.98 in South 6.9 mph 5.1 mph 86% 0.00 in 276.00 W/m2
11:04 49.3 °F 45.0 °F 29.97 in South 10.4 mph 7.7 mph 85% 0.00 in 255.00 W/m2
11:09 49.4 °F 45.1 °F 29.97 in South 5.8 mph 3.0 mph 85% 0.00 in 192.00 W/m2
11:14 49.3 °F 44.7 °F 29.96 in SSW 3.5 mph 3.7 mph 84% 0.00 in 204.00 W/m2
11:19 49.2 °F 44.6 °F 29.96 in South 6.9 mph 4.0 mph 84% 0.00 in 174.00 W/m2
11:24 49.2 °F 44.6 °F 29.96 in SSW 3.5 mph   84% 0.00 in 178.00 W/m2
11:29 49.4 °F 44.8 °F 29.96 in South 9.2 mph 3.1 mph 84% 0.00 in 301.00 W/m2
11:34 49.6 °F 45.3 °F 29.95 in SSE 9.2 mph 6.4 mph 85% 0.00 in 230.00 W/m2
11:39 49.6 °F 44.6 °F 29.94 in SSE 4.6 mph 2.4 mph 83% 0.00 in 195.00 W/m2
11:44 49.6 °F 44.6 °F 29.94 in SSE 3.5 mph 1.8 mph 83% 0.00 in 313.00 W/m2
11:49 49.6 °F 44.0 °F 29.94 in South 4.6 mph 1.6 mph 81% 0.00 in 206.00 W/m2
11:54 49.6 °F 44.6 °F 29.93 in SSE 6.9 mph 4.9 mph 83% 0.00 in 142.00 W/m2
11:59 49.5 °F 44.9 °F 29.93 in SSE 3.5 mph 1.0 mph 84% 0.00 in 181.00 W/m2
12:04 49.5 °F 44.6 °F 29.93 in SSE 4.6 mph 2.4 mph 83% 0.00 in 225.00 W/m2
12:09 49.6 °F 44.3 °F 29.92 in SSE 4.6 mph 1.0 mph 82% 0.00 in 200.00 W/m2
12:14 49.8 °F 44.8 °F 29.91 in SE 6.0 mph 1.3 mph 83% 0.00 in 236.00 W/m2
12:19 49.9 °F 44.6 °F 29.90 in SE 4.6 mph 2.5 mph 82% 0.00 in 311.00 W/m2
12:24 50.5 °F 45.5 °F 29.89 in SE 5.0 mph 4.3 mph 83% 0.00 in 327.00 W/m2
12:29 51.1 °F 45.8 °F 29.90 in SSE 4.0 mph 2.3 mph 82% 0.00 in 434.00 W/m2
12:34 51.2 °F 44.6 °F 29.89 in SSE 5.8 mph 3.2 mph 78% 0.00 in 200.00 W/m2
12:39 50.7 °F 44.1 °F 29.89 in SSE 6.9 mph 3.5 mph 78% 0.00 in 183.00 W/m2
12:44 50.3 °F 44.4 °F 29.88 in ESE 5.0 mph 3.8 mph 80% 0.00 in 165.00 W/m2
12:49 50.1 °F 44.2 °F 29.88 in SE 6.9 mph 2.3 mph 80% 0.00 in 195.00 W/m2
12:54 50.3 °F 45.0 °F 29.88 in SSE 6.0 mph 4.8 mph 82% 0.00 in 262.00 W/m2
12:59 50.9 °F 45.6 °F 29.88 in SE 5.0 mph 4.2 mph 82% 0.00 in 362.00 W/m2
13:04 51.7 °F 45.7 °F 29.87 in ESE 9.0 mph 4.1 mph 80% 0.00 in 424.00 W/m2
13:09 51.8 °F 44.5 °F 29.87 in SE 9.2 mph 1.7 mph 76% 0.00 in 373.00 W/m2
13:14 51.9 °F 44.6 °F 29.86 in SSE 5.8 mph 3.5 mph 76% 0.00 in 327.00 W/m2
13:19 52.0 °F 45.4 °F 29.86 in SE 5.8 mph 2.9 mph 78% 0.00 in 255.00 W/m2
13:24 51.6 °F 43.9 °F 29.86 in SSE 5.8 mph 3.6 mph 75% 0.00 in 244.00 W/m2
13:29 51.4 °F 44.1 °F 29.86 in SE 6.9 mph 5.2 mph 76% 0.00 in 255.00 W/m2
13:34 51.4 °F 44.1 °F 29.86 in SE 10.4 mph 5.4 mph 76% 0.00 in 311.00 W/m2
13:39 51.6 °F 44.6 °F 29.86 in SE 6.9 mph 5.3 mph 77% 0.00 in 422.00 W/m2
13:44 51.9 °F 44.2 °F 29.86 in SE 11.5 mph 5.8 mph 75% 0.00 in 334.00 W/m2
13:49 51.4 °F 43.4 °F 29.85 in SE 10.4 mph 6.2 mph 74% 0.00 in 137.00 W/m2
13:54 50.6 °F 43.0 °F 29.85 in ESE 11.5 mph 5.4 mph 75% 0.00 in 141.00 W/m2
13:59 50.2 °F 42.9 °F 29.85 in SE 11.5 mph 4.6 mph 76% 0.00 in 149.00 W/m2
14:04 50.2 °F 43.3 °F 29.84 in ESE 9.2 mph 4.8 mph 77% 0.00 in 167.00 W/m2
14:09 50.2 °F 43.3 °F 29.84 in SSE 8.1 mph 6.3 mph 77% 0.00 in 135.00 W/m2
14:14 50.2 °F 43.6 °F 29.83 in SE 11.5 mph 7.2 mph 78% 0.00 in 105.00 W/m2
14:19 50.1 °F 43.5 °F 29.83 in SE 6.9 mph 3.5 mph 78% 0.00 in 88.00 W/m2
14:24 49.9 °F 43.3 °F 29.83 in ESE 7.0 mph 3.0 mph 78% 0.00 in 79.00 W/m2
14:29 49.8 °F 42.9 °F 29.82 in SE 8.1 mph 4.8 mph 77% 0.00 in 67.00 W/m2
14:34 49.8 °F 43.2 °F 29.82 in ESE 7.0 mph 3.7 mph 78% 0.00 in 56.00 W/m2
14:39 49.7 °F 43.1 °F 29.81 in SE 9.2 mph 6.2 mph 78% 0.00 in 56.00 W/m2
14:44 49.6 °F 43.4 °F 29.81 in SE 6.9 mph 4.0 mph 79% 0.00 in 51.00 W/m2
14:49 49.6 °F 43.4 °F 29.81 in SE 6.0 mph 3.9 mph 79% 0.00 in 40.00 W/m2
14:54 49.5 °F 43.6 °F 29.82 in SE 6.9 mph 3.4 mph 80% 0.00 in 33.00 W/m2
14:59 49.5 °F 43.6 °F 29.82 in SE 7.0 mph 3.4 mph 80% 0.00 in 40.00 W/m2
15:04 49.4 °F 43.5 °F 29.83 in SSE 6.9 mph 4.2 mph 80% 0.00 in 40.00 W/m2
15:09 49.4 °F 43.5 °F 29.83 in SSE 6.9 mph 5.0 mph 80% 0.00 in 33.00 W/m2
15:14 49.3 °F 43.4 °F 29.82 in SE 10.4 mph 5.2 mph 80% 0.00 in 30.00 W/m2
15:19 49.3 °F 43.7 °F 29.82 in SE 5.8 mph 1.3 mph 81% 0.00 in 28.00 W/m2
15:24 49.2 °F 43.6 °F 29.81 in SE 6.9 mph 4.9 mph 81% 0.00 in 28.00 W/m2
15:29 49.2 °F 43.6 °F 29.82 in SE 8.0 mph 4.5 mph 81% 0.00 in 32.00 W/m2
15:34 49.2 °F 43.9 °F 29.83 in SSE 8.1 mph 5.5 mph 82% 0.00 in 19.00 W/m2
15:39 49.2 °F 43.9 °F 29.83 in SSE 10.4 mph 4.1 mph 82% 0.00 in 26.00 W/m2
15:44 49.2 °F 44.3 °F 29.83 in SSE 9.2 mph 6.8 mph 83% 0.00 in 28.00 W/m2
15:49 49.2 °F 44.6 °F 29.84 in SSE 11.0 mph 6.8 mph 84% 0.00 in 25.00 W/m2
15:54 49.2 °F 44.6 °F 29.84 in SSE 11.5 mph 4.3 mph 84% 0.00 in 12.00 W/m2
15:59 49.2 °F 44.6 °F 29.84 in SSE 6.9 mph 3.4 mph 84% 0.00 in 11.00 W/m2
16:04 49.1 °F 44.5 °F 29.84 in SSE 8.1 mph 4.5 mph 84% 0.00 in 11.00 W/m2
16:09 49.1 °F 44.8 °F 29.84 in SSE 6.9 mph 2.7 mph 85% 0.00 in 7.00 W/m2
16:14 49.1 °F 44.8 °F 29.84 in SSE 5.8 mph 2.4 mph 85% 0.00 in 7.00 W/m2
16:19 49.1 °F 44.8 °F 29.84 in SSE 5.8 mph 4.0 mph 85% 0.00 in 7.00 W/m2
16:24 49.0 °F 44.7 °F 29.83 in SE 6.9 mph 2.9 mph 85% 0.00 in 0.00 W/m2
16:29 48.9 °F 44.6 °F 29.83 in SSE 4.6 mph 2.5 mph 85% 0.00 in 0.00 W/m2
16:34 48.8 °F 44.5 °F 29.83 in SSE 5.8 mph 3.5 mph 85% 0.00 in 0.00 W/m2
16:39 48.8 °F 44.8 °F 29.83 in SSE 6.9 mph 1.9 mph 86% 0.00 in 0.00 W/m2
16:44 48.7 °F 44.7 °F 29.82 in SE 4.6 mph 1.0 mph 86% 0.00 in 0.00 W/m2
16:49 48.6 °F 44.6 °F 29.81 in SE 5.8 mph 4.9 mph 86% 0.00 in 0.00 W/m2
16:54 48.6 °F 44.6 °F 29.80 in SE 6.9 mph 2.8 mph 86% 0.00 in 0.00 W/m2
16:59 48.6 °F 44.6 °F 29.80 in ESE 4.6 mph 1.4 mph 86% 0.00 in 0.00 W/m2
17:04 48.5 °F 44.8 °F 29.79 in ESE 3.5 mph 0.2 mph 87% 0.00 in 0.00 W/m2
17:10 48.3 °F 44.6 °F 29.79 in SE 4.6 mph 1.8 mph 87% 0.00 in 0.00 W/m2
17:14 48.2 °F 44.8 °F 29.78 in East 5.8 mph 1.4 mph 88% 0.00 in 0.00 W/m2
17:19 48.1 °F 44.7 °F 29.77 in ESE 4.6 mph 0.9 mph 88% 0.00 in 0.00 W/m2
17:24 48.0 °F 44.6 °F 29.78 in SE 6.9 mph 3.2 mph 88% 0.00 in 0.00 W/m2
17:29 48.1 °F 44.7 °F 29.78 in SE 3.5 mph 2.7 mph 88% 0.00 in 0.00 W/m2
17:34 48.1 °F 44.7 °F 29.77 in ESE 6.9 mph 3.0 mph 88% 0.00 in 0.00 W/m2
17:39 48.1 °F 44.7 °F 29.78 in ESE 3.5 mph 3.3 mph 88% 0.00 in 0.00 W/m2
17:44 48.1 °F 44.7 °F 29.77 in ESE 3.5 mph 1.0 mph 88% 0.00 in 0.00 W/m2
17:49 48.1 °F 44.7 °F 29.77 in ESE 4.6 mph 0.5 mph 88% 0.00 in 0.00 W/m2
17:54 48.0 °F 44.6 °F 29.76 in ESE 3.5 mph 1.0 mph 88% 0.00 in 0.00 W/m2
17:59 47.9 °F 44.8 °F 29.75 in ESE 4.6 mph 0.5 mph 89% 0.00 in 0.00 W/m2
18:04 47.8 °F 44.7 °F 29.75 in ESE 4.6 mph 0.8 mph 89% 0.00 in 0.00 W/m2
18:09 47.8 °F 45.0 °F 29.74 in East 5.8 mph 1.4 mph 90% 0.00 in 0.00 W/m2
18:14 47.7 °F 44.9 °F 29.74 in ESE 4.6 mph 0.5 mph 90% 0.00 in 0.00 W/m2
18:19 47.7 °F 44.9 °F 29.74 in ESE 5.0 mph 2.1 mph 90% 0.00 in 0.00 W/m2
18:24 47.7 °F 44.9 °F 29.73 in ESE 4.6 mph 0.8 mph 90% 0.00 in 0.00 W/m2
18:29 47.7 °F 44.9 °F 29.73 in East 4.6 mph 2.1 mph 90% 0.00 in 0.00 W/m2
18:34 47.7 °F 44.9 °F 29.72 in East 3.5 mph 1.8 mph 90% 0.00 in 0.00 W/m2
18:39 47.8 °F 45.0 °F 29.72 in ESE 5.8 mph 2.4 mph 90% 0.00 in 0.00 W/m2
18:44 47.8 °F 45.0 °F 29.72 in East 4.6 mph 2.2 mph 90% 0.00 in 0.00 W/m2
18:49 47.8 °F 45.0 °F 29.71 in East 5.8 mph 2.4 mph 90% 0.00 in 0.00 W/m2
18:54 47.8 °F 45.0 °F 29.71 in ESE 3.5 mph 3.0 mph 90% 0.00 in 0.00 W/m2
18:59 47.7 °F 44.9 °F 29.70 in ESE 5.8 mph 2.3 mph 90% 0.00 in 0.00 W/m2
19:04 47.7 °F 45.2 °F 29.70 in East 5.8 mph 3.8 mph 91% 0.00 in 0.00 W/m2
19:09 47.6 °F 45.1 °F 29.70 in ESE 8.1 mph 5.5 mph 91% 0.00 in 0.00 W/m2
19:14 47.7 °F 45.2 °F 29.70 in ESE 5.8 mph 3.5 mph 91% 0.00 in 0.00 W/m2
19:19 47.7 °F 45.2 °F 29.70 in ESE 5.0 mph 2.7 mph 91% 0.00 in 0.00 W/m2
19:24 47.7 °F 45.2 °F 29.69 in East 8.1 mph 2.8 mph 91% 0.00 in 0.00 W/m2
19:29 47.7 °F 45.2 °F 29.69 in ESE 2.3 mph 2.2 mph 91% 0.00 in 0.00 W/m2
19:34 47.7 °F 45.5 °F 29.69 in ESE 5.8 mph 1.3 mph 92% 0.00 in 0.00 W/m2
19:39 47.6 °F 45.4 °F 29.69 in ESE 5.8 mph 1.3 mph 92% 0.00 in 0.00 W/m2
19:44 47.6 °F 45.4 °F 29.69 in East 4.6 mph 0.5 mph 92% 0.01 in 0.00 W/m2
19:49 47.6 °F 45.4 °F 29.68 in ESE 3.5 mph 0.7 mph 92% 0.01 in 0.00 W/m2
19:54 47.5 °F 45.6 °F 29.68 in Calm     93% 0.02 in 0.00 W/m2
19:59 47.5 °F 45.6 °F 29.67 in ESE 3.5 mph   93% 0.02 in 0.00 W/m2
20:04 47.5 °F 45.6 °F 29.67 in East 5.0 mph 4.5 mph 93% 0.03 in 0.00 W/m2
20:09 47.6 °F 45.7 °F 29.66 in ENE 5.8 mph 1.9 mph 93% 0.03 in 0.00 W/m2
20:14 47.6 °F 46.0 °F 29.66 in SE 6.9 mph 0.5 mph 94% 0.03 in 0.00 W/m2
20:19 47.7 °F 45.8 °F 29.66 in East 3.5 mph 2.6 mph 93% 0.03 in 0.00 W/m2
20:24 47.7 °F 46.1 °F 29.65 in ESE 5.0 mph 3.6 mph 94% 0.03 in 0.00 W/m2
20:29 47.7 °F 46.1 °F 29.65 in East 6.9 mph 1.6 mph 94% 0.03 in 0.00 W/m2
20:34 47.8 °F 46.2 °F 29.65 in ESE 7.0 mph 2.9 mph 94% 0.04 in 0.00 W/m2
20:39 47.8 °F 46.2 °F 29.64 in SE 5.0 mph 1.0 mph 94% 0.04 in 0.00 W/m2
20:44 47.9 °F 46.3 °F 29.64 in ESE 4.6 mph 2.4 mph 94% 0.03 in 0.00 W/m2
20:49 47.9 °F 46.3 °F 29.63 in ESE 4.6 mph 2.1 mph 94% 0.04 in 0.00 W/m2
20:54 48.0 °F 46.4 °F 29.63 in ESE 5.8 mph 3.7 mph 94% 0.04 in 0.00 W/m2
20:59 48.1 °F 46.5 °F 29.62 in ESE 4.6 mph 2.3 mph 94% 0.05 in 0.00 W/m2
21:04 48.2 °F 46.6 °F 29.61 in ESE 6.9 mph 3.4 mph 94% 0.04 in 0.00 W/m2
21:09 48.3 °F 46.7 °F 29.61 in SE 6.9 mph 3.2 mph 94% 0.04 in 0.00 W/m2
21:14 48.4 °F 46.8 °F 29.60 in ESE 3.5 mph 2.0 mph 94% 0.04 in 0.00 W/m2
21:19 48.5 °F 46.9 °F 29.60 in ESE 4.6 mph 3.3 mph 94% 0.05 in 0.00 W/m2
21:24 48.6 °F 47.0 °F 29.60 in ESE 4.6 mph 0.4 mph 94% 0.05 in 0.00 W/m2
21:29 48.7 °F 47.1 °F 29.59 in Calm     94% 0.06 in 0.00 W/m2
21:34 48.7 °F 47.1 °F 29.59 in Calm     94% 0.06 in 0.00 W/m2
21:39 48.8 °F 47.2 °F 29.58 in Calm     94% 0.06 in 0.00 W/m2
21:44 48.8 °F 47.2 °F 29.58 in Calm     94% 0.06 in 0.00 W/m2
21:49 48.8 °F 47.2 °F 29.57 in Calm     94% 0.06 in 0.00 W/m2
21:54 48.9 °F 47.2 °F 29.57 in ESE 4.0 mph 2.0 mph 94% 0.06 in 0.00 W/m2
21:59 49.0 °F 47.3 °F 29.57 in ESE 3.5 mph 1.8 mph 94% 0.05 in 0.00 W/m2
22:04 49.0 °F 47.3 °F 29.57 in ESE 5.0 mph 2.9 mph 94% 0.05 in 0.00 W/m2
22:09 49.1 °F 47.4 °F 29.56 in SSE 2.3 mph   94% 0.05 in 0.00 W/m2
22:14 49.2 °F 47.5 °F 29.56 in ESE 7.0 mph 3.0 mph 94% 0.06 in 0.00 W/m2
22:19 49.4 °F 47.7 °F 29.55 in ESE 8.1 mph 5.3 mph 94% 0.05 in 0.00 W/m2
22:25 49.6 °F 47.9 °F 29.55 in SE 7.0 mph 4.3 mph 94% 0.04 in 0.00 W/m2
22:29 49.8 °F 48.1 °F 29.55 in SSE 8.1 mph 6.0 mph 94% 0.04 in 0.00 W/m2
22:34 50.0 °F 48.3 °F 29.54 in SE 9.2 mph 6.6 mph 94% 0.03 in 0.00 W/m2
22:39 50.1 °F 48.4 °F 29.54 in SE 8.1 mph 5.4 mph 94% 0.03 in 0.00 W/m2
22:44 50.1 °F 48.4 °F 29.54 in SE 6.9 mph 3.7 mph 94% 0.03 in 0.00 W/m2
22:49 50.1 °F 48.4 °F 29.54 in SSE 10.4 mph 5.2 mph 94% 0.02 in 0.00 W/m2
22:54 50.1 °F 48.4 °F 29.54 in SE 8.1 mph 4.6 mph 94% 0.01 in 0.00 W/m2
22:59 50.1 °F 48.4 °F 29.53 in ESE 9.2 mph 5.0 mph 94% 0.02 in 0.00 W/m2
23:04 50.2 °F 48.5 °F 29.54 in South 5.8 mph 2.4 mph 94% 0.02 in 0.00 W/m2
23:09 50.2 °F 48.5 °F 29.53 in Calm     94% 0.02 in 0.00 W/m2
23:14 50.2 °F 48.5 °F 29.53 in SSE 4.0 mph 0.5 mph 94% 0.02 in 0.00 W/m2
23:19 50.3 °F 48.6 °F 29.53 in SSW 4.6 mph 1.1 mph 94% 0.02 in 0.00 W/m2
23:24 50.4 °F 48.7 °F 29.52 in SSE 5.8 mph 2.7 mph 94% 0.03 in 0.00 W/m2
23:29 50.6 °F 48.9 °F 29.52 in SSW 6.9 mph 3.7 mph 94% 0.03 in 0.00 W/m2
23:34 50.8 °F 49.1 °F 29.52 in SW 11.5 mph 2.1 mph 94% 0.03 in 0.00 W/m2
23:39 50.9 °F 49.2 °F 29.52 in SSW 5.8 mph 4.0 mph 94% 0.04 in 0.00 W/m2
23:44 51.1 °F 49.4 °F 29.52 in SSW 8.1 mph 3.5 mph 94% 0.04 in 0.00 W/m2
23:49 51.3 °F 49.6 °F 29.52 in South 9.2 mph 4.9 mph 94% 0.04 in 0.00 W/m2
23:54 51.4 °F 49.7 °F 29.52 in SSW 10.4 mph 4.2 mph 94% 0.04 in 0.00 W/m2
23:59 51.6 °F 49.9 °F 29.51 in South 12.7 mph 7.5 mph 94% 0.03 in 0.00 W/m2
Bourbonnais, Illinois, USA
Compliments of Weather Underground - 2 mb